This is the latest recevied weather packets stored in our database for station/object K8BCO. If no packets are shown the sender has not sent any weather packets the latest 10 day(s).
| Time | Temp. | Humidity | Pressure | Rain* | Wind** | Luminosity | Snow |
|---|---|---|---|---|---|---|---|
| 1777793717 | 6.11° C | 66% | 1006.4 hPa | 0 mm | - | 0 W/m² | - |
| 1777793117 | 6.67° C | 63% | 1006.6 hPa | 0 mm | - | 0 W/m² | - |
| 1777792517 | 6.67° C | 63% | 1006.8 hPa | 0 mm | - | 0 W/m² | - |
| 1777791917 | 6.67° C | 61% | 1006.9 hPa | 0 mm | - | 0 W/m² | - |
| 1777791317 | 6.67° C | 63% | 1007 hPa | 0 mm | - | 0 W/m² | - |
| 1777790717 | 6.11° C | 63% | 1007 hPa | 0 mm | - | 0 W/m² | - |
| 1777790118 | 6.67° C | 63% | 1007.1 hPa | 0 mm | - | 0 W/m² | - |
| 1777789518 | 6.11° C | 62% | 1007.3 hPa | 0 mm | - | 0 W/m² | - |
| 1777788918 | 6.11° C | 63% | 1007.3 hPa | 0 mm | - | 0 W/m² | - |
| 1777788318 | 6.11° C | 63% | 1007.4 hPa | 0 mm | - | 0 W/m² | - |
| 1777787718 | 5° C | 65% | 1007.4 hPa | 0 mm | - | 0 W/m² | - |
| 1777787116 | 3.89° C | 71% | 1007.7 hPa | 0 mm | - | 0 W/m² | - |
| 1777786516 | 3.33° C | 74% | 1007.7 hPa | 0 mm | - | 0 W/m² | - |
| 1777785916 | 2.78° C | 76% | 1008 hPa | 0 mm | - | 0 W/m² | - |
| 1777785316 | 2.22° C | 76% | 1008.1 hPa | 0 mm | - | 0 W/m² | - |
| 1777784716 | 1.67° C | 78% | 1008.3 hPa | 0 mm | - | 0 W/m² | - |
| 1777784117 | 1.67° C | 75% | 1008.4 hPa | 0 mm | - | 0 W/m² | - |
| 1777783517 | 1.67° C | 76% | 1008.6 hPa | 0 mm | - | 0 W/m² | - |
| 1777782917 | 1.67° C | 75% | 1008.9 hPa | 0 mm | - | 0 W/m² | - |
| 1777782317 | 1.67° C | 76% | 1009.1 hPa | 0 mm | - | 0 W/m² | - |
| 1777781717 | 1.11° C | 75% | 1009.3 hPa | 0 mm | - | 0 W/m² | - |
| 1777781119 | 1.11° C | 73% | 1009.5 hPa | 0 mm | - | 0 W/m² | - |
| 1777780517 | 0.56° C | 73% | 1009.8 hPa | 0 mm | - | 0 W/m² | - |
| 1777779918 | 0.56° C | 73% | 1009.9 hPa | 0 mm | - | 0 W/m² | - |
| 1777779320 | 0.56° C | 72% | 1010.1 hPa | 0 mm | - | 0 W/m² | - |
* Rain latest hour (hover to see other rain measurements)
** Current wind speed in m/s (hover to see current wind gust speed)